x

Western Caribbean - 195 Nm Wsw Of Negril Jamiaca (42057) Wave Buoy

9:50 - Sat 25th Jun 2016 All times are UTC.

  • Sig Wave height 2.6ft
  • Peak Period 6s
  • Average Period 5s
  • Wind
    13mph, 16mph gusts
  • Sea Temp 85°f
  • Air Temp 84°f
  • Sea Pressure 1013.6mb

More Historic Weather Station data

Upgrade to MSW Pro to gain access to the past 30 days of data for over 8000 Wavebouys and Weather Stations around the globe.

Join Pro

Comparision Forecast

View Surf forecast
   
sam. 06/25 9:50 2.5ft 6s 5s 13 16 mph 1013.6mb 85f 84f
8:50 2.5ft 6s 4s 13 16 mph 1014.1mb 85f 85f
7:50 2.5ft 6s 4s 11 13 mph 1014.5mb 85f 84f
6:50 2.5ft 6s 4s 13 16 mph 1014.9mb 85f 84f
5:50 3ft 5s 4s 13 16 mph 1015mb 85f 84f
4:50 3ft 6s 4s 11 13 mph 1015.4mb 85f 84f
3:50 2.5ft 5s 4s 13 16 mph 1015.5mb 85f 84f
2:50 2.5ft 5s 4s 13 16 mph 1015.1mb 84f 84f
1:50 2.5ft 7s 4s 13 16 mph 1014.8mb 84f 84f
12:50 2.5ft 6s 5s 11 13 mph 1014.4mb 84f 84f
11:50 2.5ft 5s 4s 11 13 mph 1014.1mb 84f 83f
10:50 3ft 5s 5s 11 16 mph 1013.8mb 84f 83f
9:50 3ft 7s 4s 13 16 mph 1013.7mb 84f 83f
8:50 2.5ft 5s 4s 13 16 mph 1013.6mb 84f 83f
7:50 3ft 4s 4s 13 16 mph 1014mb 84f 83f
6:50 2.5ft 7s 4s 11 13 mph 1014.4mb 84f 84f
5:50 3ft 7s 4s 11 13 mph 1014.6mb 84f 84f
4:50 2.5ft 6s 4s 11 13 mph 1015.2mb 84f 84f
3:50 3ft 6s 4s 13 16 mph 1015.3mb 84f 84f
2:50 3ft 6s 4s 13 16 mph 1014.8mb 85f 84f
1:50 3ft 6s 4s 13
mph
1014.5mb 85f 84f
12:50 2.5ft 7s 4s 13 18 mph 1014.2mb 85f 84f
ven. 06/24 11:50 3ft 8s 4s 13 16 mph 1014mb 85f 84f
10:50 3ft 6s 5s 11 13 mph 1013.7mb 85f 84f
9:50 3ft 6s 5s 11 13 mph 1013.6mb 85f 84f
8:50 3ft 7s 5s 13 16 mph 1014mb 85f 84f
7:50 2.5ft 6s 5s 13 16 mph 1014.4mb 85f 84f
6:50 3ft 6s 5s 11 13 mph 1015mb 85f 84f
5:50 3ft 7s 5s 11 13 mph 1015.6mb 85f 84f
4:50 3.5ft 6s 5s 11 13 mph 1016.2mb 85f 84f
3:50 3.5ft 6s 5s 11 13 mph 1016.6mb 84f 84f
2:50 3.5ft 5s 5s 11 13 mph 1016.5mb 84f 84f
1:50 3.5ft 6s 5s 11 13 mph 1016.3mb 84f 84f
12:50 3.5ft 6s 5s 11
mph
1015.9mb 84f 84f
11:50 3.5ft 5s 5s 11 13 mph 1015.3mb 84f 83f
10:50 3.5ft 5s 5s 9 13 mph 1014.7mb 84f 82f
9:50 3.5ft 5s 5s 11 13 mph 1014.3mb 84f 83f
8:50 3.5ft 6s 5s 11 13 mph 1014.3mb 84f 83f
7:50 3.5ft 6s 5s 11
mph
1014.6mb 84f 84f
6:50 3.5ft 5s 5s 13 16 mph 1014.9mb 84f 84f
5:50 3.5ft 7s 5s 13 16 mph 1015.6mb 84f 84f
4:50 3.5ft 6s 5s 16 18 mph 1016.1mb 84f 84f
3:50 3.5ft 7s 5s 18 20 mph 1016mb 84f 84f
2:50 3.5ft 7s 5s 18 20 mph 1015.5mb 84f 84f
1:50 3.5ft 7s 5s 16 18 mph 1015.6mb 84f 84f
12:50 3ft 7s 5s 16 18 mph 1014.8mb 84f 84f
jeu. 06/23 11:50 3.5ft 6s 5s 16 18 mph 1014.5mb 84f 84f
10:50 3.5ft 7s 5s 11 16 mph 1014.5mb 85f 85f
9:50 3.5ft 7s 5s 9 11 mph 1014.4mb 85f 84f
8:50 4ft 7s 5s 11 13 mph 1014.8mb 85f 84f
7:50 3.5ft 7s 5s 16
mph
1015.1mb 85f 83f
6:50 3.5ft 7s 5s 13 18 mph 1015.4mb 85f 84f
5:50 3.5ft 7s 5s 13 18 mph 1015.9mb 84f 84f
4:50 3.5ft 7s 5s 16 20 mph 1016.1mb 84f 83f
3:50 4.5ft 7s 5s 11 13 mph 1016.2mb 84f 84f
2:50 4.5ft 7s 5s 13 16 mph 1016.2mb 84f 84f
1:50 4.5ft 8s 5s 16 18 mph 1015.7mb 84f 84f
12:50 4.5ft 8s 5s 16 20 mph 1015.3mb 84f 83f
11:50 5ft 5s 5s 18 20 mph 1015mb 84f 83f
10:50 5ft 8s 5s 18 22 mph 1014.2mb 84f 83f
9:50 5.5ft 7s 5s 20 25 mph 1014.4mb 84f 83f
7:50 6ft 7s 5s 18 20 mph 1015mb 84f 83f
6:50 6.5ft 7s 6s 18 20 mph 1015.1mb 84f 83f
5:50 7ft 7s 6s 18 20 mph 1015.6mb 84f 83f
4:50 7ft 7s 5s 18 22 mph 1015.6mb 84f 83f
3:50 8ft 8s 6s 20 25 mph 1015.7mb 84f 83f
2:50 8ft 8s 6s 22 27 mph 1014.7mb 84f 83f
1:50 9ft 7s 6s 25 29 mph 1014.4mb 84f 82f
12:50 8ft 6s 5s 25 29 mph 1014.5mb 84f 81f
mer. 06/22 11:50 7ft 7s 5s 27 31 mph 1014.1mb 84f 80f
10:50 7ft 6s 5s 29 34 mph 1014.3mb 84f 78f
9:50 6ft 6s 5s 31 38 mph 1014mb 84f 78f
8:50 5.5ft 6s 5s 20 25 mph 1014.2mb 84f 80f
7:50 5.5ft 6s 5s 25 31 mph 1015.2mb 84f 78f
6:50 5ft 9s 5s 31 38 mph 1014.5mb 85f 78f
5:50 5ft 8s 5s 18 22 mph 1014.8mb 85f 83f
4:50 5ft 6s 5s 18 20 mph 1015.3mb 84f 82f
3:50 4.5ft 6s 5s 16 18 mph 1015.3mb 84f 83f
2:50 4.5ft 5s 5s 18 25 mph 1014.9mb 84f 81f
1:50 4ft 6s 5s 16 18 mph 1014.4mb 84f 83f
12:50 4ft 6s 5s 9 11 mph 1014.4mb 84f 82f
11:50 3.5ft 6s 5s 13 16 mph 1014.1mb 84f 83f
10:50 3.5ft 6s 5s 13 16 mph 1013.5mb 84f 83f
9:50 3.5ft 6s 4s 13 16 mph 1013.3mb 84f 83f
8:50 3ft 5s 5s 13 18 mph 1013.5mb 84f 83f
7:50 3ft 8s 5s 13
mph
1013.4mb 84f 83f
6:50 3ft 5s 5s 9 11 mph 1014mb 84f 83f
5:50 3ft 5s 5s 9 11 mph 1014.8mb 84f 84f
4:50 2.5ft 6s 4s 13 16 mph 1014.9mb 84f 84f
3:50 2.5ft 6s 4s 11 13 mph 1014.9mb 85f 84f
2:50 2.5ft 6s 5s 13 18 mph 1014.5mb 85f 84f
1:50 2.5ft 7s 5s 11 13 mph 1014.1mb 85f 84f